sensor_id;sensor_type;location;lat;lon;timestamp;pressure;altitude;pressure_sealevel;temperature;humidity
5679;BME280;2862;52.560;13.566;2024-02-28T00:04:27;100940.88;;;4.91;100.00
5679;BME280;2862;52.560;13.566;2024-02-28T00:14:32;100936.59;;;5.04;100.00
5679;BME280;2862;52.560;13.566;2024-02-28T00:24:34;100928.38;;;4.93;100.00
5679;BME280;2862;52.560;13.566;2024-02-28T00:34:39;100929.19;;;4.95;100.00
5679;BME280;2862;52.560;13.566;2024-02-28T00:44:42;100938.22;;;4.91;100.00
5679;BME280;2862;52.560;13.566;2024-02-28T00:54:46;100936.78;;;4.69;100.00
5679;BME280;2862;52.560;13.566;2024-02-28T01:04:49;100943.25;;;4.64;100.00
5679;BME280;2862;52.560;13.566;2024-02-28T01:14:53;100943.41;;;4.45;100.00
5679;BME280;2862;52.560;13.566;2024-02-28T01:24:56;100958.47;;;4.60;100.00
5679;BME280;2862;52.560;13.566;2024-02-28T01:35:02;100956.78;;;4.75;100.00
5679;BME280;2862;52.560;13.566;2024-02-28T01:45:06;100949.63;;;4.77;100.00
5679;BME280;2862;52.560;13.566;2024-02-28T01:55:12;100954.47;;;4.85;100.00
5679;BME280;2862;52.560;13.566;2024-02-28T02:05:15;100947.81;;;4.93;100.00
5679;BME280;2862;52.560;13.566;2024-02-28T02:15:23;100933.19;;;4.86;100.00
5679;BME280;2862;52.560;13.566;2024-02-28T02:25:27;100936.25;;;4.63;100.00
5679;BME280;2862;52.560;13.566;2024-02-28T02:35:31;100947.97;;;4.74;100.00
5679;BME280;2862;52.560;13.566;2024-02-28T02:45:35;100959.69;;;4.86;100.00
5679;BME280;2862;52.560;13.566;2024-02-28T02:55:38;100970.47;;;4.83;100.00
5679;BME280;2862;52.560;13.566;2024-02-28T03:05:42;100978.13;;;5.03;100.00
5679;BME280;2862;52.560;13.566;2024-02-28T03:15:45;100988.06;;;4.84;100.00
5679;BME280;2862;52.560;13.566;2024-02-28T03:25:49;100979.84;;;4.73;100.00
5679;BME280;2862;52.560;13.566;2024-02-28T03:35:52;100988.56;;;4.59;100.00
5679;BME280;2862;52.560;13.566;2024-02-28T03:45:57;100984.66;;;4.82;100.00
5679;BME280;2862;52.560;13.566;2024-02-28T03:56:00;100982.06;;;4.80;100.00
5679;BME280;2862;52.560;13.566;2024-02-28T04:06:04;100990.09;;;4.79;100.00
5679;BME280;2862;52.560;13.566;2024-02-28T04:16:09;101001.81;;;4.91;100.00
5679;BME280;2862;52.560;13.566;2024-02-28T04:26:13;101015.06;;;4.91;100.00
5679;BME280;2862;52.560;13.566;2024-02-28T04:36:16;101000.72;;;4.95;100.00
5679;BME280;2862;52.560;13.566;2024-02-28T04:46:20;101017.47;;;4.95;100.00
5679;BME280;2862;52.560;13.566;2024-02-28T04:56:23;101037.63;;;4.82;100.00
5679;BME280;2862;52.560;13.566;2024-02-28T05:06:28;101034.09;;;4.82;100.00
5679;BME280;2862;52.560;13.566;2024-02-28T05:16:31;101050.00;;;4.82;100.00
5679;BME280;2862;52.560;13.566;2024-02-28T05:26:35;101065.75;;;4.85;100.00
5679;BME280;2862;52.560;13.566;2024-02-28T05:36:40;101066.63;;;5.01;100.00
5679;BME280;2862;52.560;13.566;2024-02-28T05:46:44;101077.97;;;5.03;100.00
5679;BME280;2862;52.560;13.566;2024-02-28T05:56:48;101083.28;;;5.03;100.00
5679;BME280;2862;52.560;13.566;2024-02-28T06:06:52;101096.91;;;5.13;100.00
5679;BME280;2862;52.560;13.566;2024-02-28T06:16:55;101108.84;;;5.04;100.00
5679;BME280;2862;52.560;13.566;2024-02-28T06:26:59;101127.25;;;5.07;100.00
5679;BME280;2862;52.560;13.566;2024-02-28T06:37:02;101136.53;;;5.47;100.00
5679;BME280;2862;52.560;13.566;2024-02-28T06:47:06;101142.78;;;5.62;100.00
5679;BME280;2862;52.560;13.566;2024-02-28T06:57:10;101139.94;;;5.33;100.00
5679;BME280;2862;52.560;13.566;2024-02-28T07:07:15;101159.41;;;5.32;100.00
5679;BME280;2862;52.560;13.566;2024-02-28T07:17:18;101175.00;;;5.39;100.00
5679;BME280;2862;52.560;13.566;2024-02-28T07:27:23;101163.81;;;5.65;100.00
5679;BME280;2862;52.560;13.566;2024-02-28T07:37:26;101157.53;;;6.13;100.00
5679;BME280;2862;52.560;13.566;2024-02-28T07:47:30;101166.13;;;6.49;100.00
5679;BME280;2862;52.560;13.566;2024-02-28T07:57:33;101177.56;;;6.19;100.00
5679;BME280;2862;52.560;13.566;2024-02-28T08:07:37;101186.34;;;5.58;100.00
5679;BME280;2862;52.560;13.566;2024-02-28T08:17:40;101205.09;;;5.22;100.00
5679;BME280;2862;52.560;13.566;2024-02-28T08:27:45;101211.16;;;5.24;100.00
5679;BME280;2862;52.560;13.566;2024-02-28T08:37:48;101227.31;;;5.19;100.00
5679;BME280;2862;52.560;13.566;2024-02-28T08:47:52;101233.25;;;5.07;100.00
5679;BME280;2862;52.560;13.566;2024-02-28T08:57:55;101247.78;;;4.83;100.00
5679;BME280;2862;52.560;13.566;2024-02-28T09:08:00;101247.28;;;4.74;100.00
5679;BME280;2862;52.560;13.566;2024-02-28T09:18:04;101230.53;;;4.74;100.00
5679;BME280;2862;52.560;13.566;2024-02-28T09:28:08;101237.00;;;5.03;100.00
5679;BME280;2862;52.560;13.566;2024-02-28T09:38:14;101230.91;;;5.18;100.00
5679;BME280;2862;52.560;13.566;2024-02-28T09:48:19;101251.06;;;5.21;100.00
5679;BME280;2862;52.560;13.566;2024-02-28T09:58:22;101266.38;;;4.98;100.00
5679;BME280;2862;52.560;13.566;2024-02-28T10:08:27;101275.66;;;5.07;100.00
5679;BME280;2862;52.560;13.566;2024-02-28T10:18:30;101279.31;;;5.04;99.91
5679;BME280;2862;52.560;13.566;2024-02-28T10:28:36;101297.25;;;4.82;100.00
5679;BME280;2862;52.560;13.566;2024-02-28T10:38:40;101308.16;;;4.76;100.00
5679;BME280;2862;52.560;13.566;2024-02-28T10:48:44;101314.63;;;4.88;100.00
5679;BME280;2862;52.560;13.566;2024-02-28T10:58:52;101316.16;;;4.74;100.00
5679;BME280;2862;52.560;13.566;2024-02-28T11:08:59;101313.06;;;4.66;100.00
5679;BME280;2862;52.560;13.566;2024-02-28T11:19:02;101328.97;;;4.84;100.00
5679;BME280;2862;52.560;13.566;2024-02-28T11:29:08;101320.72;;;4.90;100.00
5679;BME280;2862;52.560;13.566;2024-02-28T11:39:12;101319.47;;;4.97;98.73
5679;BME280;2862;52.560;13.566;2024-02-28T11:49:17;101324.59;;;4.83;97.76
5679;BME280;2862;52.560;13.566;2024-02-28T11:59:20;101325.38;;;5.19;97.46
5679;BME280;2862;52.560;13.566;2024-02-28T12:09:25;101333.19;;;5.40;94.88
5679;BME280;2862;52.560;13.566;2024-02-28T12:19:34;101321.97;;;5.35;92.99
5679;BME280;2862;52.560;13.566;2024-02-28T12:29:38;101322.00;;;5.50;93.45
5679;BME280;2862;52.560;13.566;2024-02-28T12:39:41;101327.28;;;5.50;92.24
5679;BME280;2862;52.560;13.566;2024-02-28T12:49:45;101327.16;;;5.36;90.40
5679;BME280;2862;52.560;13.566;2024-02-28T12:59:48;101325.16;;;5.74;86.31
5679;BME280;2862;52.560;13.566;2024-02-28T13:09:53;101339.66;;;5.67;86.17
5679;BME280;2862;52.560;13.566;2024-02-28T13:19:56;101323.56;;;5.88;85.26
5679;BME280;2862;52.560;13.566;2024-02-28T13:30:00;101321.94;;;5.68;84.74
5679;BME280;2862;52.560;13.566;2024-02-28T13:40:03;101321.53;;;5.42;86.02
5679;BME280;2862;52.560;13.566;2024-02-28T13:50:09;101305.44;;;5.96;82.02
5679;BME280;2862;52.560;13.566;2024-02-28T14:00:13;101314.84;;;5.85;80.86
5679;BME280;2862;52.560;13.566;2024-02-28T14:10:17;101307.44;;;6.08;77.75
5679;BME280;2862;52.560;13.566;2024-02-28T14:20:21;101300.31;;;5.93;78.89
5679;BME280;2862;52.560;13.566;2024-02-28T14:30:29;101305.38;;;5.97;78.93
5679;BME280;2862;52.560;13.566;2024-02-28T14:40:32;101311.06;;;5.90;79.55
5679;BME280;2862;52.560;13.566;2024-02-28T14:50:37;101312.41;;;6.14;79.72
5679;BME280;2862;52.560;13.566;2024-02-28T15:00:39;101318.41;;;6.33;79.10
5679;BME280;2862;52.560;13.566;2024-02-28T15:10:44;101325.31;;;6.04;79.69
5679;BME280;2862;52.560;13.566;2024-02-28T15:20:48;101324.84;;;5.80;81.13
5679;BME280;2862;52.560;13.566;2024-02-28T15:30:53;101328.78;;;5.56;81.26
5679;BME280;2862;52.560;13.566;2024-02-28T15:40:56;101328.25;;;5.49;82.28
5679;BME280;2862;52.560;13.566;2024-02-28T15:51:00;101327.72;;;5.43;83.81
5679;BME280;2862;52.560;13.566;2024-02-28T16:01:03;101324.84;;;5.30;85.17
5679;BME280;2862;52.560;13.566;2024-02-28T16:11:08;101315.56;;;5.21;85.32
5679;BME280;2862;52.560;13.566;2024-02-28T16:21:12;101328.81;;;5.04;86.38
5679;BME280;2862;52.560;13.566;2024-02-28T16:31:17;101331.63;;;4.84;86.68
5679;BME280;2862;52.560;13.566;2024-02-28T16:41:20;101345.25;;;4.76;87.36
5679;BME280;2862;52.560;13.566;2024-02-28T16:51:24;101351.19;;;4.62;88.58
5679;BME280;2862;52.560;13.566;2024-02-28T17:01:27;101351.78;;;4.50;89.90
5679;BME280;2862;52.560;13.566;2024-02-28T17:11:31;101362.19;;;4.17;91.00
5679;BME280;2862;52.560;13.566;2024-02-28T17:21:34;101362.53;;;4.09;91.90
5679;BME280;2862;52.560;13.566;2024-02-28T17:31:39;101361.25;;;3.99;92.79
5679;BME280;2862;52.560;13.566;2024-02-28T17:41:42;101361.59;;;3.91;93.16
5679;BME280;2862;52.560;13.566;2024-02-28T17:51:48;101375.81;;;3.89;93.79
5679;BME280;2862;52.560;13.566;2024-02-28T18:01:51;101373.78;;;3.75;94.66
5679;BME280;2862;52.560;13.566;2024-02-28T18:11:55;101385.50;;;3.69;95.29
5679;BME280;2862;52.560;13.566;2024-02-28T18:21:58;101380.75;;;3.57;95.66
5679;BME280;2862;52.560;13.566;2024-02-28T18:32:05;101379.44;;;3.47;96.82
5679;BME280;2862;52.560;13.566;2024-02-28T18:42:08;101382.06;;;3.47;97.42
5679;BME280;2862;52.560;13.566;2024-02-28T18:52:13;101377.78;;;3.44;96.97
5679;BME280;2862;52.560;13.566;2024-02-28T19:02:17;101375.59;;;3.34;97.67
5679;BME280;2862;52.560;13.566;2024-02-28T19:12:25;101384.84;;;3.24;98.63
5679;BME280;2862;52.560;13.566;2024-02-28T19:22:28;101377.72;;;3.04;99.68
5679;BME280;2862;52.560;13.566;2024-02-28T19:32:32;101377.88;;;3.01;100.00
5679;BME280;2862;52.560;13.566;2024-02-28T19:42:36;101376.16;;;3.00;99.97
5679;BME280;2862;52.560;13.566;2024-02-28T19:52:40;101385.97;;;2.96;99.88
5679;BME280;2862;52.560;13.566;2024-02-28T20:02:43;101399.41;;;2.70;100.00
5679;BME280;2862;52.560;13.566;2024-02-28T20:12:49;101394.72;;;2.76;100.00
5679;BME280;2862;52.560;13.566;2024-02-28T20:22:52;101403.84;;;2.46;100.00
5679;BME280;2862;52.560;13.566;2024-02-28T20:32:56;101402.94;;;2.47;100.00
5679;BME280;2862;52.560;13.566;2024-02-28T20:42:59;101394.13;;;2.46;100.00
5679;BME280;2862;52.560;13.566;2024-02-28T20:53:04;101399.94;;;2.32;100.00
5679;BME280;2862;52.560;13.566;2024-02-28T21:03:08;101393.06;;;2.28;100.00
5679;BME280;2862;52.560;13.566;2024-02-28T21:13:12;101385.44;;;2.21;100.00
5679;BME280;2862;52.560;13.566;2024-02-28T21:23:15;101388.66;;;2.05;100.00
5679;BME280;2862;52.560;13.566;2024-02-28T21:33:20;101389.03;;;1.95;100.00
5679;BME280;2862;52.560;13.566;2024-02-28T21:43:23;101373.28;;;1.93;100.00
5679;BME280;2862;52.560;13.566;2024-02-28T21:53:28;101376.28;;;2.07;100.00
5679;BME280;2862;52.560;13.566;2024-02-28T22:03:31;101365.78;;;1.82;100.00
5679;BME280;2862;52.560;13.566;2024-02-28T22:13:35;101374.91;;;1.74;100.00
5679;BME280;2862;52.560;13.566;2024-02-28T22:23:38;101366.13;;;1.48;100.00
5679;BME280;2862;52.560;13.566;2024-02-28T22:33:43;101354.66;;;1.24;100.00
5679;BME280;2862;52.560;13.566;2024-02-28T22:43:46;101357.63;;;1.15;100.00
5679;BME280;2862;52.560;13.566;2024-02-28T22:53:50;101344.72;;;1.08;100.00
5679;BME280;2862;52.560;13.566;2024-02-28T23:03:53;101358.59;;;1.13;100.00
5679;BME280;2862;52.560;13.566;2024-02-28T23:13:58;101358.09;;;1.01;100.00
5679;BME280;2862;52.560;13.566;2024-02-28T23:24:00;101348.31;;;1.05;100.00
5679;BME280;2862;52.560;13.566;2024-02-28T23:34:05;101354.44;;;1.05;100.00
5679;BME280;2862;52.560;13.566;2024-02-28T23:44:09;101350.09;;;1.04;100.00
5679;BME280;2862;52.560;13.566;2024-02-28T23:54:13;101324.13;;;0.94;100.00
